createdAt,value
2019-03-28T00:01:16.591Z,43.80
2019-03-28T00:03:49.114Z,43.80
2019-03-28T00:06:21.728Z,43.90
2019-03-28T00:08:54.266Z,43.90
2019-03-28T00:11:26.882Z,44.60
2019-03-28T00:13:59.403Z,44.00
2019-03-28T00:16:33.052Z,44.00
2019-03-28T00:19:05.662Z,44.00
2019-03-28T00:21:38.150Z,43.20
2019-03-28T00:24:18.386Z,43.90
2019-03-28T00:26:50.956Z,44.00
2019-03-28T00:29:23.434Z,43.90
2019-03-28T00:31:56.129Z,43.90
2019-03-28T00:34:28.635Z,44.10
2019-03-28T00:37:01.132Z,44.50
2019-03-28T00:39:33.624Z,44.20
2019-03-28T00:42:06.293Z,44.10
2019-03-28T00:44:38.851Z,44.20
2019-03-28T00:47:11.477Z,44.40
2019-03-28T00:49:43.985Z,44.40
2019-03-28T00:52:16.535Z,44.50
2019-03-28T00:54:49.028Z,44.60
2019-03-28T00:57:21.563Z,44.40
2019-03-28T00:59:54.178Z,44.50
2019-03-28T01:02:26.828Z,44.60
2019-03-28T01:04:59.346Z,44.60
2019-03-28T01:07:31.809Z,44.70
2019-03-28T01:10:04.614Z,44.80
2019-03-28T01:12:38.990Z,45.20
2019-03-28T01:15:11.807Z,45.60
2019-03-28T01:17:44.424Z,45.00
2019-03-28T01:20:17.042Z,45.00
2019-03-28T01:22:49.634Z,45.10
2019-03-28T01:25:22.093Z,45.10
2019-03-28T01:27:54.551Z,45.20
2019-03-28T01:30:26.965Z,45.20
2019-03-28T01:32:59.454Z,45.30
2019-03-28T01:35:32.005Z,45.40
2019-03-28T01:38:04.601Z,45.40
2019-03-28T01:40:37.132Z,45.20
2019-03-28T01:43:09.588Z,45.40
2019-03-28T01:45:42.005Z,45.30
2019-03-28T01:48:14.437Z,45.50
2019-03-28T01:50:46.951Z,45.60
2019-03-28T01:53:19.563Z,45.70
2019-03-28T01:55:52.050Z,45.60
2019-03-28T01:58:25.638Z,45.60
2019-03-28T02:00:58.270Z,45.70
2019-03-28T02:03:30.732Z,45.60
2019-03-28T02:06:03.188Z,45.70
2019-03-28T02:08:35.615Z,45.80
2019-03-28T02:11:08.220Z,45.80
2019-03-28T02:13:40.722Z,45.70
2019-03-28T02:16:13.203Z,45.80
2019-03-28T02:18:45.686Z,45.90
2019-03-28T02:21:18.216Z,46.70
2019-03-28T02:23:50.811Z,46.10
2019-03-28T02:26:25.230Z,46.70
2019-03-28T02:28:59.517Z,46.10
2019-03-28T02:31:32.002Z,46.10
2019-03-28T02:34:04.634Z,46.20
2019-03-28T02:36:37.137Z,46.20
2019-03-28T02:39:09.911Z,46.10
2019-03-28T02:41:42.398Z,46.20
2019-03-28T02:44:14.897Z,46.40
2019-03-28T02:46:47.495Z,46.40
2019-03-28T02:49:20.154Z,46.50
2019-03-28T02:51:52.699Z,46.50
2019-03-28T02:54:25.248Z,46.50
2019-03-28T02:56:57.755Z,46.70
2019-03-28T02:59:30.198Z,46.70
2019-03-28T03:02:02.679Z,47.20
2019-03-28T03:04:35.160Z,46.80
2019-03-28T03:07:07.679Z,46.90
2019-03-28T03:09:40.311Z,47.00
2019-03-28T03:12:12.759Z,47.00
2019-03-28T03:14:45.240Z,47.10
2019-03-28T03:17:17.695Z,47.10
2019-03-28T03:19:50.192Z,47.10
2019-03-28T03:22:22.654Z,47.10
2019-03-28T03:24:55.278Z,47.10
2019-03-28T03:27:27.782Z,47.10
2019-03-28T03:30:00.631Z,47.20
2019-03-28T03:32:44.681Z,47.20
2019-03-28T03:35:17.424Z,47.40
2019-03-28T03:37:49.908Z,47.30
2019-03-28T03:40:22.471Z,47.40
2019-03-28T03:42:55.086Z,47.30
2019-03-28T03:45:27.533Z,47.30
2019-03-28T03:48:00.035Z,47.40
2019-03-28T03:50:32.639Z,47.40
2019-03-28T03:53:05.183Z,47.50
2019-03-28T03:55:37.689Z,47.40
2019-03-28T03:58:16.272Z,47.40
2019-03-28T04:00:44.566Z,47.50
2019-03-28T04:03:17.141Z,47.50
2019-03-28T04:05:49.698Z,47.40
2019-03-28T04:08:22.282Z,47.40
2019-03-28T04:10:54.806Z,47.30
2019-03-28T04:13:27.311Z,47.30
2019-03-28T04:15:59.915Z,47.30
2019-03-28T04:18:32.537Z,47.40
2019-03-28T04:21:05.073Z,47.40
2019-03-28T04:23:37.676Z,47.50
2019-03-28T04:26:10.234Z,47.60
2019-03-28T04:28:42.831Z,47.60
2019-03-28T04:31:15.318Z,47.70
2019-03-28T04:33:47.771Z,47.70
2019-03-28T04:36:20.474Z,47.70
2019-03-28T04:38:52.941Z,47.80
2019-03-28T04:41:25.429Z,47.80
2019-03-28T04:43:58.092Z,47.80
2019-03-28T04:46:30.582Z,48.00
2019-03-28T04:49:03.808Z,47.90
2019-03-28T04:51:36.329Z,48.00
2019-03-28T04:54:09.962Z,48.00
2019-03-28T04:56:42.627Z,48.00
2019-03-28T04:59:15.477Z,48.00
2019-03-28T05:01:59.710Z,48.10
2019-03-28T05:04:22.379Z,48.10
2019-03-28T05:06:54.815Z,48.10
2019-03-28T05:09:27.294Z,48.10
2019-03-28T05:11:59.787Z,48.20
2019-03-28T05:14:32.592Z,48.10
2019-03-28T05:17:05.132Z,48.00
2019-03-28T05:19:37.661Z,48.10
2019-03-28T05:22:11.430Z,48.00
2019-03-28T05:24:43.977Z,48.00
2019-03-28T05:27:16.798Z,48.00
2019-03-28T05:29:49.415Z,47.90
2019-03-28T05:32:22.014Z,48.00
2019-03-28T05:34:55.485Z,48.00
2019-03-28T05:37:27.959Z,48.10
2019-03-28T05:40:00.459Z,48.20
2019-03-28T05:42:33.058Z,48.80
2019-03-28T05:45:05.868Z,48.90
2019-03-28T05:47:38.427Z,48.30
2019-03-28T05:50:11.378Z,48.30
2019-03-28T05:52:45.357Z,48.40
2019-03-28T05:55:18.901Z,48.40
2019-03-28T05:57:52.478Z,48.50
2019-03-28T06:00:25.085Z,48.50
2019-03-28T06:03:00.820Z,48.50
2019-03-28T06:05:36.455Z,48.40
2019-03-28T06:08:10.683Z,48.60
2019-03-28T06:10:44.450Z,48.60
2019-03-28T06:13:17.035Z,48.60
2019-03-28T06:15:49.613Z,48.70
2019-03-28T06:18:22.174Z,48.80
2019-03-28T06:20:55.447Z,49.00
2019-03-28T06:23:28.052Z,48.90
2019-03-28T06:26:00.562Z,48.90
2019-03-28T06:28:33.252Z,48.80
2019-03-28T06:31:06.951Z,48.90
2019-03-28T06:33:39.470Z,48.80
2019-03-28T06:36:12.944Z,48.90
2019-03-28T06:38:46.700Z,48.80
2019-03-28T06:41:19.189Z,48.80
2019-03-28T06:43:51.701Z,48.70
2019-03-28T06:46:24.206Z,48.70
2019-03-28T06:48:56.820Z,48.70
2019-03-28T06:51:29.315Z,48.70
2019-03-28T06:54:01.833Z,48.70
2019-03-28T06:56:36.178Z,48.80
2019-03-28T06:59:08.683Z,48.90
2019-03-28T07:01:41.333Z,48.90
2019-03-28T07:04:13.828Z,49.00
2019-03-28T07:06:47.562Z,48.80
2019-03-28T07:09:20.172Z,48.80
2019-03-28T07:11:52.704Z,49.40
2019-03-28T07:14:25.219Z,48.70
2019-03-28T07:16:58.044Z,49.10
2019-03-28T07:19:30.507Z,49.50
2019-03-28T07:22:03.100Z,49.20
2019-03-28T07:24:38.729Z,49.00
2019-03-28T07:27:11.454Z,49.00
2019-03-28T07:29:50.634Z,48.90
2019-03-28T07:32:18.184Z,48.80
2019-03-28T07:34:52.025Z,48.80
2019-03-28T07:37:27.861Z,48.80
2019-03-28T07:39:58.928Z,49.60
2019-03-28T07:42:31.475Z,49.00
2019-03-28T07:45:04.424Z,49.70
2019-03-28T07:47:36.935Z,49.10
2019-03-28T07:50:11.619Z,49.20
2019-03-28T07:52:44.470Z,49.20
2019-03-28T07:55:17.013Z,49.10
2019-03-28T07:57:49.556Z,49.10
2019-03-28T08:00:22.176Z,49.20
2019-03-28T08:02:54.866Z,49.00
2019-03-28T08:05:27.349Z,49.00
2019-03-28T08:08:00.189Z,48.80
2019-03-28T08:10:32.669Z,48.60
2019-03-28T08:13:05.339Z,48.50
2019-03-28T08:15:40.601Z,48.60
2019-03-28T08:18:13.332Z,48.50
2019-03-28T08:20:47.355Z,48.40
2019-03-28T08:23:22.193Z,48.40
2019-03-28T08:25:54.817Z,48.40
2019-03-28T08:28:27.463Z,48.20
2019-03-28T08:30:59.998Z,48.20
2019-03-28T08:33:34.399Z,48.30
2019-03-28T08:36:07.487Z,48.30
2019-03-28T08:38:41.949Z,48.30
2019-03-28T08:41:16.013Z,48.50
2019-03-28T08:43:49.828Z,48.40
2019-03-28T08:46:23.307Z,48.30
2019-03-28T08:48:56.019Z,48.20
2019-03-28T08:51:28.666Z,48.10
2019-03-28T08:54:01.153Z,48.10
2019-03-28T08:56:33.624Z,48.00
2019-03-28T08:59:06.132Z,48.20
2019-03-28T09:01:38.758Z,48.10
2019-03-28T09:04:11.416Z,48.00
2019-03-28T09:06:44.008Z,48.10
2019-03-28T09:09:16.676Z,48.10
2019-03-28T09:11:49.302Z,48.10
2019-03-28T09:14:21.815Z,48.00
2019-03-28T09:16:54.337Z,47.40
2019-03-28T09:19:26.901Z,47.80
2019-03-28T09:21:59.414Z,47.80
2019-03-28T09:24:32.208Z,47.80
2019-03-28T09:27:04.897Z,47.30
2019-03-28T09:29:37.463Z,48.30
2019-03-28T09:32:10.061Z,47.80
2019-03-28T09:34:45.036Z,48.00
2019-03-28T09:37:17.559Z,47.70
2019-03-28T09:39:50.194Z,47.60
2019-03-28T09:42:22.905Z,47.60
2019-03-28T09:44:56.358Z,47.40
2019-03-28T09:47:28.984Z,47.50
2019-03-28T09:50:03.002Z,47.50
2019-03-28T09:52:35.557Z,47.40
2019-03-28T09:55:08.229Z,47.30
2019-03-28T09:57:40.756Z,47.20
2019-03-28T10:00:14.987Z,47.20
2019-03-28T10:02:47.629Z,47.00
2019-03-28T10:05:20.133Z,47.00
2019-03-28T10:07:52.755Z,47.10
2019-03-28T10:10:25.373Z,47.20
2019-03-28T10:12:58.145Z,47.00
2019-03-28T10:15:30.720Z,47.80
2019-03-28T10:18:04.713Z,47.00
2019-03-28T10:20:37.303Z,46.60
2019-03-28T10:23:12.522Z,46.70
2019-03-28T10:25:45.319Z,46.90
2019-03-28T10:28:17.893Z,46.40
2019-03-28T10:30:51.806Z,46.40
2019-03-28T10:33:24.664Z,46.30
2019-03-28T10:36:01.056Z,46.20
2019-03-28T10:38:33.657Z,46.10
2019-03-28T10:41:12.767Z,46.00
2019-03-28T10:43:50.480Z,45.70
2019-03-28T10:46:29.051Z,45.80
2019-03-28T10:49:05.257Z,45.50
2019-03-28T10:51:37.986Z,45.40
2019-03-28T10:54:19.856Z,45.20
2019-03-28T10:56:52.070Z,45.30
2019-03-28T10:59:25.377Z,45.00
2019-03-28T11:01:58.139Z,45.10
2019-03-28T11:04:30.828Z,44.80
2019-03-28T11:07:04.919Z,44.60
2019-03-28T11:09:41.720Z,44.50
2019-03-28T11:12:24.029Z,44.10
2019-03-28T11:14:57.831Z,43.50
2019-03-28T11:17:40.579Z,43.30
2019-03-28T11:22:06.489Z,43.10
2019-03-28T11:23:58.586Z,42.90
2019-03-28T11:26:49.831Z,43.00
2019-03-28T11:29:24.889Z,42.70
2019-03-28T11:31:57.397Z,43.00
2019-03-28T11:34:33.586Z,42.90
2019-03-28T11:37:09.613Z,42.30
2019-03-28T11:40:02.152Z,42.10
2019-03-28T11:42:34.790Z,41.90
2019-03-28T11:45:09.423Z,41.90
2019-03-28T11:47:43.869Z,41.80
2019-03-28T11:50:21.188Z,41.80
2019-03-28T11:52:55.266Z,41.50
2019-03-28T11:55:29.007Z,41.40
2019-03-28T11:58:01.537Z,41.10
2019-03-28T12:00:34.227Z,40.90
2019-03-28T12:03:06.750Z,40.80
2019-03-28T12:05:40.598Z,40.80
2019-03-28T12:08:13.189Z,40.90
2019-03-28T12:10:45.654Z,40.60
2019-03-28T12:13:18.359Z,40.40
2019-03-28T12:15:51.150Z,40.60
2019-03-28T12:18:25.189Z,40.40
2019-03-28T12:20:59.403Z,40.30
2019-03-28T12:23:31.927Z,40.30
2019-03-28T12:26:04.640Z,40.40
2019-03-28T12:28:37.403Z,40.70
2019-03-28T12:31:11.045Z,40.80
2019-03-28T12:33:43.668Z,40.90
2019-03-28T12:36:16.339Z,40.90
2019-03-28T12:38:48.994Z,40.80
2019-03-28T12:41:21.640Z,41.00
2019-03-28T12:43:55.397Z,40.90
2019-03-28T12:46:29.411Z,40.70
2019-03-28T12:49:03.072Z,40.80
2019-03-28T12:51:35.683Z,40.70
2019-03-28T12:54:09.625Z,40.60
2019-03-28T12:56:42.183Z,40.60
2019-03-28T13:01:50.421Z,40.60
2019-03-28T13:04:22.940Z,40.50
2019-03-28T13:06:55.574Z,40.60
2019-03-28T13:09:33.914Z,40.60
2019-03-28T13:13:22.027Z,40.60
2019-03-28T13:15:54.598Z,40.60
2019-03-28T13:18:27.482Z,40.50
2019-03-28T13:21:12.832Z,40.40
2019-03-28T13:23:34.464Z,40.30
2019-03-28T13:26:07.261Z,40.30
2019-03-28T13:28:39.812Z,40.10
2019-03-28T13:31:12.440Z,40.10
2019-03-28T13:33:44.952Z,40.10
2019-03-28T13:36:17.674Z,40.00
2019-03-28T13:38:50.289Z,39.90
2019-03-28T13:41:24.422Z,39.90
2019-03-28T13:43:57.050Z,40.50
2019-03-28T13:46:29.886Z,39.70
2019-03-28T13:49:02.395Z,39.60
2019-03-28T13:51:35.004Z,39.70
2019-03-28T13:54:07.551Z,39.70
2019-03-28T13:56:40.101Z,39.70
2019-03-28T13:59:12.893Z,39.70
2019-03-28T14:01:45.526Z,39.50
2019-03-28T14:04:18.265Z,39.30
2019-03-28T14:06:50.932Z,39.20
2019-03-28T14:09:23.794Z,39.10
2019-03-28T14:11:56.400Z,39.00
2019-03-28T14:14:28.921Z,39.10
2019-03-28T14:17:01.478Z,39.00
2019-03-28T14:19:33.972Z,38.80
2019-03-28T14:22:06.497Z,38.60
2019-03-28T14:24:40.148Z,38.70
2019-03-28T14:27:12.972Z,38.80
2019-03-28T14:29:45.542Z,38.80
2019-03-28T14:32:18.327Z,38.70
2019-03-28T14:34:50.807Z,38.60
2019-03-28T14:37:24.422Z,38.40
2019-03-28T14:39:58.324Z,38.60
2019-03-28T14:42:30.950Z,38.60
2019-03-28T14:45:03.506Z,38.40
2019-03-28T14:47:36.012Z,38.40
2019-03-28T14:50:12.694Z,38.20
2019-03-28T14:52:45.165Z,38.90
2019-03-28T14:55:17.863Z,38.20
2019-03-28T14:57:50.782Z,38.20
2019-03-28T15:00:48.795Z,38.10
2019-03-28T15:03:27.468Z,38.20
2019-03-28T15:05:58.550Z,38.10
2019-03-28T15:08:31.285Z,38.10
2019-03-28T15:11:04.064Z,38.20
2019-03-28T15:13:36.634Z,38.20
2019-03-28T15:16:09.427Z,38.10
2019-03-28T15:18:42.114Z,38.10
2019-03-28T15:21:15.935Z,38.20
2019-03-28T15:23:48.441Z,38.10
2019-03-28T15:26:21.163Z,38.10
2019-03-28T15:28:53.807Z,38.10
2019-03-28T15:31:26.326Z,38.10
2019-03-28T15:33:58.888Z,38.10
2019-03-28T15:36:31.614Z,38.00
2019-03-28T15:39:05.809Z,38.00
2019-03-28T15:41:38.445Z,38.10
2019-03-28T15:44:10.996Z,38.20
2019-03-28T15:46:43.667Z,38.30
2019-03-28T15:49:16.300Z,38.30
2019-03-28T15:51:48.995Z,38.20
2019-03-28T15:54:21.623Z,38.30
2019-03-28T15:56:54.173Z,38.40
2019-03-28T15:59:26.691Z,38.40
2019-03-28T16:02:00.025Z,38.40
2019-03-28T16:04:32.989Z,38.40
2019-03-28T16:07:07.726Z,38.40
2019-03-28T16:09:40.594Z,38.40
2019-03-28T16:12:13.276Z,38.90
2019-03-28T16:14:45.941Z,38.40
2019-03-28T16:17:18.556Z,38.40
2019-03-28T16:19:52.918Z,38.40
2019-03-28T16:22:27.330Z,38.40
2019-03-28T16:25:00.006Z,38.40
2019-03-28T16:27:32.538Z,38.40
2019-03-28T16:30:05.976Z,38.40
2019-03-28T16:32:40.595Z,38.50
2019-03-28T16:35:13.654Z,38.40
2019-03-28T16:37:46.217Z,38.50
2019-03-28T16:40:18.811Z,38.60
2019-03-28T16:42:51.466Z,38.50
2019-03-28T16:45:24.108Z,38.60
2019-03-28T16:47:56.801Z,38.50
2019-03-28T16:50:29.673Z,38.50
2019-03-28T16:53:02.285Z,38.50
2019-03-28T16:55:34.950Z,38.50
2019-03-28T16:58:08.893Z,38.50
2019-03-28T17:00:42.167Z,38.60
2019-03-28T17:03:14.733Z,38.60
2019-03-28T17:05:47.390Z,38.70
2019-03-28T17:08:20.709Z,38.70
2019-03-28T17:10:55.559Z,38.80
2019-03-28T17:13:28.096Z,38.70
2019-03-28T17:16:00.735Z,38.70
2019-03-28T17:18:33.336Z,38.80
2019-03-28T17:21:07.184Z,38.80
2019-03-28T17:23:39.723Z,38.90
2019-03-28T17:26:12.447Z,38.80
2019-03-28T17:28:45.237Z,38.90
2019-03-28T17:31:18.891Z,38.90
2019-03-28T17:33:51.645Z,38.90
2019-03-28T17:36:26.972Z,38.90
2019-03-28T17:39:01.509Z,38.90
2019-03-28T17:41:34.108Z,38.90
2019-03-28T17:44:07.859Z,38.90
2019-03-28T17:46:41.790Z,39.00
2019-03-28T17:49:15.624Z,39.00
2019-03-28T17:51:48.246Z,39.10
2019-03-28T17:54:21.834Z,39.10
2019-03-28T17:56:54.396Z,39.00
2019-03-28T17:59:27.114Z,39.20
2019-03-28T18:01:59.692Z,39.10
2019-03-28T18:04:32.648Z,39.10
2019-03-28T18:07:05.320Z,39.20
2019-03-28T18:09:39.038Z,39.20
2019-03-28T18:12:13.755Z,39.10
2019-03-28T18:14:46.532Z,39.20
2019-03-28T18:17:19.238Z,39.20
2019-03-28T18:19:51.939Z,39.20
2019-03-28T18:22:24.490Z,39.30
2019-03-28T18:24:57.393Z,39.20
2019-03-28T18:27:30.058Z,39.20
2019-03-28T18:30:05.299Z,39.30
2019-03-28T18:32:39.402Z,39.30
2019-03-28T18:35:12.195Z,39.30
2019-03-28T18:37:45.007Z,39.30
2019-03-28T18:40:18.618Z,39.90
2019-03-28T18:42:52.959Z,39.30
2019-03-28T18:45:25.904Z,39.40
2019-03-28T18:47:58.604Z,39.50
2019-03-28T18:50:32.329Z,39.40
2019-03-28T18:53:05.098Z,39.30
2019-03-28T18:55:37.795Z,39.10
2019-03-28T18:58:10.381Z,39.20
2019-03-28T19:00:43.246Z,39.40
2019-03-28T19:03:15.884Z,39.40
2019-03-28T19:05:48.880Z,39.40
2019-03-28T19:08:21.819Z,39.40
2019-03-28T19:10:54.410Z,39.10
2019-03-28T19:13:28.499Z,39.00
2019-03-28T19:16:01.258Z,39.10
2019-03-28T19:18:33.913Z,39.30
2019-03-28T19:21:06.710Z,39.40
2019-03-28T19:23:39.373Z,39.40
2019-03-28T19:26:11.959Z,39.30
2019-03-28T19:28:44.529Z,39.30
2019-03-28T19:31:17.213Z,39.30
2019-03-28T19:33:50.832Z,39.40
2019-03-28T19:36:24.085Z,39.60
2019-03-28T19:38:57.109Z,39.70
2019-03-28T19:41:29.787Z,39.70
2019-03-28T19:44:03.198Z,39.70
2019-03-28T19:46:36.909Z,40.00
2019-03-28T19:49:09.518Z,40.00
2019-03-28T19:51:42.419Z,40.00
2019-03-28T19:54:16.201Z,40.10
2019-03-28T19:56:49.009Z,40.00
2019-03-28T19:59:21.644Z,40.30
2019-03-28T20:01:54.153Z,40.30
2019-03-28T20:04:26.960Z,40.40
2019-03-28T20:06:59.692Z,40.30
2019-03-28T20:09:32.474Z,40.50
2019-03-28T20:12:05.921Z,40.70
2019-03-28T20:14:38.675Z,40.60
2019-03-28T20:17:11.570Z,40.70
2019-03-28T20:19:44.232Z,42.20
2019-03-28T20:22:16.912Z,41.50
2019-03-28T20:24:51.327Z,41.40
2019-03-28T20:27:23.923Z,41.40
2019-03-28T20:29:56.511Z,41.20
2019-03-28T20:32:30.293Z,41.30
2019-03-28T20:35:03.043Z,41.40
2019-03-28T20:37:37.953Z,41.40
2019-03-28T20:40:11.443Z,41.50
2019-03-28T20:42:44.188Z,41.50
2019-03-28T20:45:17.513Z,41.50
2019-03-28T20:47:50.891Z,41.70
2019-03-28T20:50:25.414Z,41.70
2019-03-28T20:52:58.087Z,41.80
2019-03-28T20:55:30.778Z,41.90
2019-03-28T20:58:03.592Z,42.00
2019-03-28T21:00:43.257Z,42.10
2019-03-28T21:03:16.193Z,42.00
2019-03-28T21:05:49.943Z,42.10
2019-03-28T21:08:22.686Z,42.30
2019-03-28T21:10:57.110Z,42.40
2019-03-28T21:13:30.145Z,42.30
2019-03-28T21:16:04.112Z,42.40
2019-03-28T21:18:36.754Z,42.40
2019-03-28T21:21:09.424Z,42.40
2019-03-28T21:23:42.025Z,42.50
2019-03-28T21:26:15.111Z,42.60
2019-03-28T21:28:48.041Z,42.70
2019-03-28T21:31:20.618Z,42.60
2019-03-28T21:33:55.045Z,42.80
2019-03-28T21:36:30.155Z,42.90
2019-03-28T21:39:04.757Z,43.00
2019-03-28T21:41:38.711Z,43.60
2019-03-28T21:44:12.522Z,43.10
2019-03-28T21:46:45.150Z,43.20
2019-03-28T21:49:17.984Z,43.10
2019-03-28T21:51:50.474Z,43.20
2019-03-28T21:54:23.071Z,43.30
2019-03-28T21:56:55.808Z,43.40
2019-03-28T21:59:28.321Z,43.30
2019-03-28T22:02:00.952Z,43.40
2019-03-28T22:04:33.521Z,43.40
2019-03-28T22:07:06.233Z,43.40
2019-03-28T22:09:39.937Z,43.40
2019-03-28T22:12:12.800Z,43.40
2019-03-28T22:14:48.163Z,43.60
2019-03-28T22:17:20.714Z,43.60
2019-03-28T22:19:53.343Z,43.70
2019-03-28T22:22:26.043Z,43.80
2019-03-28T22:24:58.602Z,43.80
2019-03-28T22:27:31.244Z,44.20
2019-03-28T22:30:03.962Z,44.00
2019-03-28T22:32:36.634Z,44.20
2019-03-28T22:35:09.556Z,44.20
2019-03-28T22:37:43.268Z,44.20
2019-03-28T22:40:16.431Z,44.30
2019-03-28T22:42:48.969Z,44.20
2019-03-28T22:45:21.506Z,44.20
2019-03-28T22:47:54.293Z,44.40
2019-03-28T22:50:26.988Z,44.20
2019-03-28T22:52:59.570Z,44.20
2019-03-28T22:55:32.251Z,44.30
2019-03-28T22:58:05.270Z,44.50
2019-03-28T23:00:45.166Z,44.50
2019-03-28T23:03:19.172Z,44.70
2019-03-28T23:05:51.805Z,44.60
2019-03-28T23:08:24.341Z,44.60
2019-03-28T23:10:56.897Z,44.60
2019-03-28T23:13:32.200Z,44.60
2019-03-28T23:16:04.825Z,44.60
2019-03-28T23:18:37.331Z,44.90
2019-03-28T23:21:09.917Z,44.90
2019-03-28T23:23:42.438Z,45.00
2019-03-28T23:26:16.782Z,45.10
2019-03-28T23:28:49.460Z,45.70
2019-03-28T23:31:22.004Z,45.20
2019-03-28T23:33:54.646Z,45.10
2019-03-28T23:36:27.251Z,45.30
2019-03-28T23:38:59.891Z,45.30
2019-03-28T23:41:32.493Z,45.40
2019-03-28T23:44:05.022Z,45.30
2019-03-28T23:46:37.896Z,45.40
2019-03-28T23:49:10.495Z,45.30
2019-03-28T23:51:43.194Z,46.00
2019-03-28T23:54:15.922Z,45.40
2019-03-28T23:56:48.538Z,45.50
2019-03-28T23:59:21.186Z,46.30
